createdAt,value
2018-11-27T00:02:53.507Z,95768.00
2018-11-27T00:07:55.934Z,95768.00
2018-11-27T00:12:58.459Z,95772.00
2018-11-27T00:18:00.949Z,95775.00
2018-11-27T00:23:03.396Z,95784.00
2018-11-27T00:28:05.879Z,95794.00
2018-11-27T00:33:08.343Z,95789.00
2018-11-27T00:38:10.839Z,95798.00
2018-11-27T00:43:13.311Z,95806.00
2018-11-27T00:48:15.958Z,95801.00
2018-11-27T00:53:18.435Z,95808.00
2018-11-27T00:58:21.446Z,95814.00
2018-11-27T01:03:23.939Z,95824.00
2018-11-27T01:08:28.032Z,95827.00
2018-11-27T01:13:30.511Z,95824.00
2018-11-27T01:18:32.971Z,95831.00
2018-11-27T01:23:35.486Z,95838.00
2018-11-27T01:28:37.947Z,95848.00
2018-11-27T01:33:40.374Z,95840.00
2018-11-27T01:38:42.838Z,95852.00
2018-11-27T01:43:46.242Z,95846.00
2018-11-27T01:48:48.724Z,95855.00
2018-11-27T01:53:51.171Z,95856.00
2018-11-27T01:58:54.484Z,95852.00
2018-11-27T02:03:56.963Z,95854.00
2018-11-27T02:08:59.410Z,95850.00
2018-11-27T02:14:01.856Z,95849.00
2018-11-27T02:19:04.314Z,95856.00
2018-11-27T02:24:06.858Z,95854.00
2018-11-27T02:29:09.383Z,95857.00
2018-11-27T02:34:11.865Z,95857.00
2018-11-27T02:39:14.348Z,95857.00
2018-11-27T02:44:16.860Z,95853.00
2018-11-27T02:49:19.287Z,95867.00
2018-11-27T02:54:21.718Z,95871.00
2018-11-27T02:59:24.175Z,95874.00
2018-11-27T03:04:26.631Z,95881.00
2018-11-27T03:09:29.075Z,95881.00
2018-11-27T03:14:31.573Z,95885.00
2018-11-27T03:19:34.008Z,95885.00
2018-11-27T03:24:36.451Z,95885.00
2018-11-27T03:29:38.924Z,95892.00
2018-11-27T03:34:41.343Z,95883.00
2018-11-27T03:39:43.808Z,95894.00
2018-11-27T03:44:46.316Z,95896.00
2018-11-27T03:49:48.880Z,95901.00
2018-11-27T03:54:51.222Z,95905.00
2018-11-27T03:59:53.687Z,95910.00
2018-11-27T04:04:56.140Z,95916.00
2018-11-27T04:09:58.831Z,95916.00
2018-11-27T04:15:01.263Z,95921.00
2018-11-27T04:20:03.884Z,95922.00
2018-11-27T04:25:11.686Z,95921.00
2018-11-27T04:30:16.501Z,95924.00
2018-11-27T04:35:20.698Z,95925.00
2018-11-27T04:40:23.185Z,95933.00
2018-11-27T04:45:26.307Z,95939.00
2018-11-27T04:50:28.799Z,95942.00
2018-11-27T04:55:31.249Z,95944.00
2018-11-27T05:00:33.822Z,95953.00
2018-11-27T05:05:36.630Z,95966.00
2018-11-27T05:10:44.326Z,95972.00
2018-11-27T05:15:47.903Z,95975.00
2018-11-27T05:20:50.378Z,95973.00
2018-11-27T05:25:52.858Z,95979.00
2018-11-27T05:30:55.367Z,95989.00
2018-11-27T05:35:57.826Z,95995.00
2018-11-27T05:41:00.276Z,96004.00
2018-11-27T05:46:02.750Z,96008.00
2018-11-27T05:51:06.054Z,96017.00
2018-11-27T05:56:08.524Z,96026.00
2018-11-27T06:01:10.950Z,96029.00
2018-11-27T06:06:13.398Z,96036.00
2018-11-27T06:11:15.876Z,96044.00
2018-11-27T06:16:18.872Z,96047.00
2018-11-27T06:21:21.368Z,96049.00
2018-11-27T06:26:23.935Z,96048.00
2018-11-27T06:31:26.977Z,96057.00
2018-11-27T06:36:29.418Z,96068.00
2018-11-27T06:41:31.993Z,96075.00
2018-11-27T06:46:34.547Z,96085.00
2018-11-27T06:51:37.098Z,96089.00
2018-11-27T06:56:39.543Z,96098.00
2018-11-27T07:01:41.990Z,96107.00
2018-11-27T07:06:44.486Z,96108.00
2018-11-27T07:11:46.950Z,96115.00
2018-11-27T07:16:49.419Z,96131.00
2018-11-27T07:21:51.862Z,96138.00
2018-11-27T07:26:54.422Z,96140.00
2018-11-27T07:31:56.937Z,96143.00
2018-11-27T07:36:59.411Z,96147.00
2018-11-27T07:42:01.870Z,96145.00
2018-11-27T07:47:04.471Z,96148.00
2018-11-27T07:52:06.935Z,96158.00
2018-11-27T07:57:09.428Z,96173.00
2018-11-27T08:02:11.902Z,96175.00
2018-11-27T08:07:14.384Z,96181.00
2018-11-27T08:12:16.931Z,96186.00
2018-11-27T08:17:19.886Z,96187.00
2018-11-27T08:22:22.380Z,96181.00
2018-11-27T08:27:24.834Z,96199.00
2018-11-27T08:32:27.935Z,96213.00
2018-11-27T08:37:31.362Z,96214.00
2018-11-27T08:42:33.823Z,96223.00
2018-11-27T08:47:36.402Z,96235.00
2018-11-27T08:52:38.914Z,96231.00
2018-11-27T08:57:42.816Z,96234.00
2018-11-27T09:02:45.582Z,96249.00
2018-11-27T09:07:48.175Z,96252.00
2018-11-27T09:12:50.647Z,96259.00
2018-11-27T09:18:11.763Z,96264.00
2018-11-27T09:23:14.344Z,96265.00
2018-11-27T09:28:16.827Z,96273.00
2018-11-27T09:33:19.342Z,96277.00
2018-11-27T09:38:21.795Z,96284.00
2018-11-27T09:43:24.252Z,96283.00
2018-11-27T09:48:26.699Z,96288.00
2018-11-27T09:53:29.177Z,96286.00
2018-11-27T09:58:31.723Z,96297.00
2018-11-27T10:03:34.206Z,96304.00
2018-11-27T10:08:36.679Z,96308.00
2018-11-27T10:13:39.130Z,96298.00
2018-11-27T10:18:41.579Z,96311.00
2018-11-27T10:23:44.153Z,96316.00
2018-11-27T10:28:46.613Z,96312.00
2018-11-27T10:33:49.212Z,96326.00
2018-11-27T10:38:51.664Z,96332.00
2018-11-27T10:43:54.925Z,96327.00
2018-11-27T10:49:00.958Z,96336.00
2018-11-27T10:54:03.455Z,96340.00
2018-11-27T10:59:06.010Z,96346.00
2018-11-27T11:04:08.519Z,96353.00
2018-11-27T11:09:11.050Z,96346.00
2018-11-27T11:14:13.530Z,96354.00
2018-11-27T11:19:18.385Z,96355.00
2018-11-27T11:24:18.591Z,96353.00
2018-11-27T11:29:21.189Z,96362.00
2018-11-27T11:34:23.683Z,96364.00
2018-11-27T11:39:26.154Z,96367.00
2018-11-27T11:44:28.636Z,96371.00
2018-11-27T11:49:31.103Z,96360.00
2018-11-27T11:54:33.574Z,96356.00
2018-11-27T11:59:36.095Z,96358.00
2018-11-27T12:04:38.550Z,96358.00
2018-11-27T12:09:41.140Z,96363.00
2018-11-27T12:14:43.620Z,96364.00
2018-11-27T12:19:47.174Z,96369.00
2018-11-27T12:24:49.658Z,96365.00
2018-11-27T12:29:52.178Z,96371.00
2018-11-27T12:34:54.680Z,96381.00
2018-11-27T12:39:57.762Z,96384.00
2018-11-27T12:45:00.218Z,96384.00
2018-11-27T12:50:02.744Z,96384.00
2018-11-27T12:55:07.001Z,96391.00
2018-11-27T13:00:11.994Z,96401.00
2018-11-27T13:05:23.611Z,96395.00
2018-11-27T13:10:26.075Z,96393.00
2018-11-27T13:15:28.585Z,96390.00
2018-11-27T13:20:31.066Z,96389.00
2018-11-27T13:25:33.547Z,96385.00
2018-11-27T13:30:38.631Z,96402.00
2018-11-27T13:35:40.974Z,96409.00
2018-11-27T13:40:43.682Z,96412.00
2018-11-27T13:45:46.197Z,96413.00
2018-11-27T13:50:48.767Z,96417.00
2018-11-27T13:55:51.225Z,96418.00
2018-11-27T14:00:53.854Z,96433.00
2018-11-27T14:05:56.841Z,96437.00
2018-11-27T14:10:59.362Z,96432.00
2018-11-27T14:16:01.826Z,96444.00
2018-11-27T14:21:05.072Z,96452.00
2018-11-27T14:26:07.977Z,96456.00
2018-11-27T14:31:10.460Z,96465.00
2018-11-27T14:36:14.007Z,96469.00
2018-11-27T14:41:16.560Z,96477.00
2018-11-27T14:46:19.034Z,96485.00
2018-11-27T14:51:21.514Z,96503.00
2018-11-27T14:56:23.963Z,96497.00
2018-11-27T15:01:26.435Z,96501.00
2018-11-27T15:06:31.264Z,96506.00
2018-11-27T15:11:33.802Z,96507.00
2018-11-27T15:16:36.259Z,96509.00
2018-11-27T15:21:38.755Z,96518.00
2018-11-27T15:26:41.251Z,96521.00
2018-11-27T15:31:43.844Z,96542.00
2018-11-27T15:36:46.303Z,96542.00
2018-11-27T15:41:48.864Z,96543.00
2018-11-27T15:51:38.140Z,96562.00
2018-11-27T15:56:41.028Z,96571.00
2018-11-27T16:01:43.935Z,96581.00
2018-11-27T16:11:47.031Z,96574.00
2018-11-27T16:16:49.756Z,96576.00
2018-11-27T16:21:58.403Z,96584.00
2018-11-27T16:27:07.215Z,96588.00
2018-11-27T16:32:13.078Z,96599.00
2018-11-27T16:37:21.710Z,96602.00
2018-11-27T16:42:30.441Z,96610.00
2018-11-27T16:47:31.551Z,96613.00
2018-11-27T16:52:34.346Z,96609.00
2018-11-27T16:57:38.307Z,96618.00
2018-11-27T17:02:41.162Z,96620.00
2018-11-27T17:07:47.798Z,96626.00
2018-11-27T17:12:54.815Z,96633.00
2018-11-27T17:17:57.752Z,96634.00
2018-11-27T17:23:01.637Z,96639.00
2018-11-27T17:28:15.378Z,96644.00
2018-11-27T17:33:22.193Z,96638.00
2018-11-27T17:38:28.756Z,96645.00
2018-11-27T17:43:32.181Z,96642.00
2018-11-27T17:48:36.590Z,96658.00
2018-11-27T17:53:42.464Z,96662.00
2018-11-27T17:58:46.211Z,96669.00
2018-11-27T18:03:49.695Z,96673.00
2018-11-27T18:08:53.172Z,96676.00
2018-11-27T18:13:55.975Z,96683.00
2018-11-27T18:18:59.759Z,96679.00
2018-11-27T18:24:08.367Z,96698.00
2018-11-27T18:29:11.230Z,96703.00
2018-11-27T18:34:15.843Z,96700.00
2018-11-27T18:39:18.772Z,96700.00
2018-11-27T18:44:23.831Z,96711.00
2018-11-27T18:49:28.359Z,96714.00
2018-11-27T18:54:31.534Z,96714.00
2018-11-27T18:59:37.348Z,96718.00
2018-11-27T19:04:40.284Z,96723.00
2018-11-27T19:09:44.094Z,96732.00
2018-11-27T19:14:47.600Z,96747.00
2018-11-27T19:19:51.385Z,96744.00
2018-11-27T19:24:56.445Z,96736.00
2018-11-27T19:30:00.301Z,96745.00
2018-11-27T19:35:03.258Z,96735.00
2018-11-27T19:40:10.515Z,96740.00
2018-11-27T19:45:21.587Z,96749.00
2018-11-27T19:50:27.515Z,96761.00
2018-11-27T19:55:32.227Z,96695.00
2018-11-27T20:00:39.583Z,96766.00
2018-11-27T20:05:43.380Z,96768.00
2018-11-27T20:10:46.193Z,96770.00
2018-11-27T20:15:49.192Z,96770.00
2018-11-27T20:20:52.419Z,96776.00
2018-11-27T20:25:55.261Z,96784.00
2018-11-27T20:31:01.213Z,96795.00
2018-11-27T20:36:10.836Z,96792.00
2018-11-27T20:41:14.935Z,96800.00
2018-11-27T20:46:18.855Z,96814.00
2018-11-27T20:51:25.245Z,96811.00
2018-11-27T20:56:33.868Z,96826.00
2018-11-27T21:01:39.777Z,96824.00
2018-11-27T21:06:45.639Z,96824.00
2018-11-27T21:11:49.407Z,96828.00
2018-11-27T21:16:58.896Z,96834.00
2018-11-27T21:22:04.774Z,96837.00
2018-11-27T21:27:10.632Z,96840.00
2018-11-27T21:32:14.394Z,96847.00
2018-11-27T21:37:17.466Z,96853.00
2018-11-27T21:42:25.859Z,96844.00
2018-11-27T21:47:29.405Z,96849.00
2018-11-27T21:52:32.786Z,96846.00
2018-11-27T21:57:36.279Z,96860.00
2018-11-27T22:02:43.942Z,96863.00
2018-11-27T22:07:52.540Z,96870.00
2018-11-27T22:13:01.264Z,96852.00
2018-11-27T22:18:08.124Z,96863.00
2018-11-27T22:23:13.987Z,96871.00
2018-11-27T22:28:21.726Z,96869.00
2018-11-27T22:33:27.487Z,96873.00
2018-11-27T22:38:33.371Z,96874.00
2018-11-27T22:43:41.903Z,96871.00
2018-11-27T22:48:45.244Z,96878.00
2018-11-27T22:53:51.113Z,96878.00
2018-11-27T22:58:59.815Z,96882.00
2018-11-27T23:04:08.431Z,96884.00
2018-11-27T23:09:17.075Z,96888.00
2018-11-27T23:14:25.619Z,96885.00
2018-11-27T23:19:34.168Z,96870.00
2018-11-27T23:24:42.854Z,96880.00
2018-11-27T23:41:49.419Z,96871.00
2018-11-27T23:46:57.900Z,96874.00
2018-11-27T23:52:00.719Z,96863.00
2018-11-27T23:57:09.391Z,96854.00
